Terminal Aerodrome Forecast
Issued by NWS

Home | Current Version | Previous Version | Text Only | Print | Product List | Glossary On
Versions: 1 2 3 4 5 6 7 8 9 10 11 12 13 14 15 16 17 18 19
000
FTUS46 KOTX 271556 AAC
TAFPUW
TAF AMD
KPUW 271556Z 2716/2812 23014KT P6SM SCT014 SCT030
     FM271800 24014KT P6SM SCT025 BKN080
     FM272100 25013G20KT P6SM -SHRA BKN025 OVC045
     FM280300 26007KT P6SM SCT045 BKN100
     FM280700 23005KT P6SM SCT250=

USA.gov is the U.S. government's official web portal to all federal, state and local government web resources and services.